createdAt,value
2022-10-02T00:02:25.210Z,1021.88
2022-10-02T00:07:32.457Z,1021.95
2022-10-02T00:12:39.621Z,1022.07
2022-10-02T00:17:46.809Z,1022.16
2022-10-02T00:22:54.053Z,1022.12
2022-10-02T00:28:01.254Z,1022.09
2022-10-02T00:33:08.423Z,1022.13
2022-10-02T00:38:15.649Z,1022.32
2022-10-02T00:43:22.837Z,1022.15
2022-10-02T00:48:30.010Z,1022.15
2022-10-02T00:53:37.287Z,1022.27
2022-10-02T00:58:44.462Z,1022.39
2022-10-02T01:03:51.655Z,1022.48
2022-10-02T01:08:58.913Z,1022.55
2022-10-02T01:14:06.067Z,1022.58
2022-10-02T01:19:13.265Z,1022.63
2022-10-02T01:24:20.493Z,1022.66
2022-10-02T01:29:27.692Z,1022.71
2022-10-02T01:34:34.902Z,1022.48
2022-10-02T01:39:42.209Z,1022.46
2022-10-02T01:44:49.347Z,1022.39
2022-10-02T01:49:56.596Z,1022.41
2022-10-02T01:55:03.843Z,1022.52
2022-10-02T02:00:11.015Z,1022.41
2022-10-02T02:05:18.303Z,1022.54
2022-10-02T02:10:25.536Z,1022.53
2022-10-02T02:15:32.758Z,1022.42
2022-10-02T02:20:39.932Z,1022.51
2022-10-02T02:25:47.186Z,1022.49
2022-10-02T02:30:54.347Z,1022.38
2022-10-02T02:36:01.530Z,1022.28
2022-10-02T02:41:08.783Z,1022.16
2022-10-02T02:46:16.020Z,1022.38
2022-10-02T02:51:23.211Z,1022.12
2022-10-02T02:56:30.492Z,1022.26
2022-10-02T03:01:37.672Z,1022.25
2022-10-02T03:06:44.893Z,1022.20
2022-10-02T03:11:52.129Z,1022.10
2022-10-02T03:16:59.280Z,1022.07
2022-10-02T03:22:06.666Z,1022.01
2022-10-02T03:27:14.022Z,1021.77
2022-10-02T03:32:21.298Z,1021.71
2022-10-02T03:37:28.529Z,1021.79
2022-10-02T03:42:35.766Z,1021.77
2022-10-02T03:47:42.879Z,1021.89
2022-10-02T03:52:50.092Z,1021.77
2022-10-02T03:57:57.366Z,1021.65
2022-10-02T04:03:04.561Z,1021.37
2022-10-02T04:08:11.775Z,1021.62
2022-10-02T04:13:18.984Z,1021.48
2022-10-02T04:18:26.255Z,1021.46
2022-10-02T04:23:33.469Z,1021.63
2022-10-02T04:28:40.694Z,1021.69
2022-10-02T04:33:47.869Z,1021.71
2022-10-02T04:38:55.083Z,1021.54
2022-10-02T04:44:02.266Z,1021.53
2022-10-02T04:49:09.491Z,1021.52
2022-10-02T04:54:16.684Z,1021.41
2022-10-02T04:59:24.029Z,1021.43
2022-10-02T05:04:31.257Z,1021.34
2022-10-02T05:09:38.499Z,1021.20
2022-10-02T05:14:45.737Z,1021.16
2022-10-02T05:19:52.913Z,1021.13
2022-10-02T05:25:00.132Z,1021.09
2022-10-02T05:30:07.351Z,1021.05
2022-10-02T05:35:14.544Z,1021.27
2022-10-02T05:40:21.713Z,1021.42
2022-10-02T05:45:28.977Z,1021.53
2022-10-02T05:50:36.180Z,1021.59
2022-10-02T05:55:43.392Z,1021.66
2022-10-02T06:00:50.761Z,1021.67
2022-10-02T06:05:57.778Z,1021.79
2022-10-02T06:11:04.984Z,1021.65
2022-10-02T06:16:12.343Z,1021.72
2022-10-02T06:21:19.536Z,1021.64
2022-10-02T06:26:26.732Z,1021.65
2022-10-02T06:31:34.117Z,1021.76
2022-10-02T06:36:41.302Z,1021.64
2022-10-02T06:41:48.531Z,1021.53
2022-10-02T06:46:55.778Z,1021.76
2022-10-02T06:52:02.999Z,1021.65
2022-10-02T06:57:10.226Z,1021.68
2022-10-02T07:02:17.487Z,1021.65
2022-10-02T07:07:24.581Z,1021.60
2022-10-02T07:12:31.848Z,1021.55
2022-10-02T07:17:39.105Z,1021.66
2022-10-02T07:22:46.431Z,1021.56
2022-10-02T07:27:53.675Z,1021.52
2022-10-02T07:33:00.925Z,1021.52
2022-10-02T07:38:08.101Z,1021.44
2022-10-02T07:43:15.796Z,1021.50
2022-10-02T07:48:23.117Z,1021.43
2022-10-02T07:53:30.310Z,1021.29
2022-10-02T07:58:37.549Z,1021.59
2022-10-02T08:03:44.841Z,1021.59
2022-10-02T08:08:52.033Z,1021.47
2022-10-02T08:13:59.206Z,1021.61
2022-10-02T08:19:06.443Z,1021.67
2022-10-02T08:24:13.616Z,1021.55
2022-10-02T08:29:20.841Z,1021.50
2022-10-02T08:34:28.052Z,1021.40
2022-10-02T08:39:35.230Z,1021.49
2022-10-02T08:44:42.541Z,1021.46
2022-10-02T08:49:49.777Z,1021.38
2022-10-02T08:54:57.004Z,1021.35
2022-10-02T09:00:04.193Z,1021.27
2022-10-02T09:05:11.388Z,1021.48
2022-10-02T09:10:18.551Z,1021.32
2022-10-02T09:15:25.767Z,1021.21
2022-10-02T09:20:33.002Z,1021.23
2022-10-02T09:25:40.121Z,1021.08
2022-10-02T09:30:47.372Z,1021.02
2022-10-02T09:35:54.610Z,1021.08
2022-10-02T09:41:01.834Z,1021.00
2022-10-02T09:46:09.124Z,1020.93
2022-10-02T09:51:16.321Z,1021.02
2022-10-02T09:56:23.521Z,1020.94
2022-10-02T10:01:30.775Z,1020.91
2022-10-02T10:06:38.736Z,1020.76
2022-10-02T10:11:45.420Z,1020.83
2022-10-02T10:16:52.720Z,1020.65
2022-10-02T10:22:00.027Z,1020.57
2022-10-02T10:27:08.203Z,1020.67
2022-10-02T10:32:14.625Z,1020.60
2022-10-02T10:37:21.877Z,1020.58
2022-10-02T10:42:29.133Z,1020.52
2022-10-02T10:47:36.284Z,1020.59
2022-10-02T10:52:43.558Z,1020.51
2022-10-02T10:57:50.755Z,1020.55
2022-10-02T11:02:58.211Z,1020.42
2022-10-02T11:08:05.437Z,1020.43
2022-10-02T11:13:12.644Z,1020.56
2022-10-02T11:18:19.865Z,1020.37
2022-10-02T11:23:27.191Z,1020.38
2022-10-02T11:28:34.432Z,1020.28
2022-10-02T11:33:42.140Z,1020.25
2022-10-02T11:38:49.535Z,1020.30
2022-10-02T11:43:56.643Z,1020.84
2022-10-02T11:49:03.918Z,1020.98
2022-10-02T11:54:11.194Z,1020.94
2022-10-02T11:59:18.395Z,1020.72
2022-10-02T12:04:25.580Z,1020.64
2022-10-02T12:09:32.819Z,1020.57
2022-10-02T12:14:40.070Z,1020.56
2022-10-02T12:19:47.297Z,1020.44
2022-10-02T12:24:55.045Z,1020.38
2022-10-02T12:30:01.768Z,1020.37
2022-10-02T12:35:09.057Z,1020.33
2022-10-02T12:40:16.369Z,1020.35
2022-10-02T12:45:23.576Z,1020.32
2022-10-02T12:50:31.086Z,1020.14
2022-10-02T12:55:38.302Z,1020.20
2022-10-02T13:00:45.513Z,1020.02
2022-10-02T13:05:52.638Z,1020.14
2022-10-02T13:11:00.151Z,1020.15
2022-10-02T13:16:07.399Z,1019.93
2022-10-02T13:21:14.568Z,1019.99
2022-10-02T13:26:21.745Z,1020.03
2022-10-02T13:31:29.027Z,1019.92
2022-10-02T13:36:36.186Z,1019.88
2022-10-02T13:41:43.412Z,1019.84
2022-10-02T13:46:50.644Z,1019.79
2022-10-02T13:51:57.900Z,1019.65
2022-10-02T13:57:05.122Z,1019.60
2022-10-02T14:02:13.754Z,1019.55
2022-10-02T14:07:20.976Z,1019.58
2022-10-02T14:12:28.798Z,1019.47
2022-10-02T14:17:36.057Z,1019.45
2022-10-02T14:22:43.348Z,1019.34
2022-10-02T14:27:50.688Z,1019.28
2022-10-02T14:32:57.872Z,1019.24
2022-10-02T14:38:05.148Z,1019.12
2022-10-02T14:43:12.389Z,1019.10
2022-10-02T14:48:19.663Z,1019.12
2022-10-02T14:53:26.890Z,1019.19
2022-10-02T14:58:34.163Z,1019.12
2022-10-02T15:03:41.337Z,1019.17
2022-10-02T15:08:48.518Z,1019.14
2022-10-02T15:13:55.746Z,1019.22
2022-10-02T15:19:02.956Z,1019.18
2022-10-02T15:24:10.165Z,1019.22
2022-10-02T15:29:17.439Z,1019.28
2022-10-02T15:34:24.680Z,1019.28
2022-10-02T15:39:31.887Z,1019.44
2022-10-02T15:44:39.084Z,1019.38
2022-10-02T15:49:46.263Z,1019.44
2022-10-02T15:54:53.488Z,1019.50
2022-10-02T16:00:00.806Z,1019.55
2022-10-02T16:05:07.899Z,1019.60
2022-10-02T16:10:15.107Z,1019.66
2022-10-02T16:15:22.454Z,1019.65
2022-10-02T16:20:29.625Z,1019.71
2022-10-02T16:25:36.892Z,1019.73
2022-10-02T16:30:44.132Z,1019.76
2022-10-02T16:35:51.322Z,1019.91
2022-10-02T16:40:58.506Z,1019.84
2022-10-02T16:46:05.807Z,1019.92
2022-10-02T16:51:13.043Z,1020.05
2022-10-02T16:56:20.290Z,1020.13
2022-10-02T17:01:27.639Z,1020.11
2022-10-02T17:06:35.581Z,1020.25
2022-10-02T17:11:42.547Z,1020.34
2022-10-02T17:16:49.983Z,1020.37
2022-10-02T17:21:57.086Z,1020.42
2022-10-02T17:27:04.298Z,1020.62
2022-10-02T17:32:11.535Z,1020.60
2022-10-02T17:37:19.711Z,1020.78
2022-10-02T17:42:27.011Z,1020.91
2022-10-02T17:47:34.249Z,1020.93
2022-10-02T17:52:41.488Z,1021.05
2022-10-02T17:57:48.665Z,1021.18
2022-10-02T18:02:55.904Z,1021.32
2022-10-02T18:08:03.092Z,1021.38
2022-10-02T18:13:10.293Z,1021.40
2022-10-02T18:18:17.474Z,1021.32
2022-10-02T18:23:24.638Z,1021.27
2022-10-02T18:28:31.958Z,1021.37
2022-10-02T18:33:39.411Z,1021.45
2022-10-02T18:38:46.727Z,1021.39
2022-10-02T18:43:53.996Z,1021.38
2022-10-02T18:49:01.742Z,1021.46
2022-10-02T18:54:09.032Z,1021.33
2022-10-02T18:59:16.248Z,1021.54
2022-10-02T19:04:23.772Z,1021.39
2022-10-02T19:09:31.045Z,1021.38
2022-10-02T19:14:38.343Z,1021.30
2022-10-02T19:19:45.633Z,1021.29
2022-10-02T19:24:52.925Z,1021.20
2022-10-02T19:30:00.183Z,1021.42
2022-10-02T19:35:10.907Z,1021.44
2022-10-02T19:40:18.203Z,1021.52
2022-10-02T19:45:25.688Z,1021.70
2022-10-02T19:50:32.705Z,1021.67
2022-10-02T19:55:39.851Z,1021.66
2022-10-02T20:00:47.251Z,1021.65
2022-10-02T20:05:54.623Z,1021.73
2022-10-02T20:11:01.872Z,1021.76
2022-10-02T20:16:09.456Z,1021.76
2022-10-02T20:21:16.637Z,1021.77
2022-10-02T20:26:23.746Z,1021.75
2022-10-02T20:31:31.020Z,1021.79
2022-10-02T20:36:38.143Z,1021.90
2022-10-02T20:41:45.329Z,1021.97
2022-10-02T20:46:52.619Z,1022.14
2022-10-02T20:51:59.819Z,1022.07
2022-10-02T20:57:10.301Z,1022.03
2022-10-02T21:02:14.314Z,1022.13
2022-10-02T21:07:21.583Z,1022.27
2022-10-02T21:12:28.790Z,1022.28
2022-10-02T21:17:35.959Z,1022.33
2022-10-02T21:22:43.246Z,1022.43
2022-10-02T21:27:50.696Z,1022.46
2022-10-02T21:32:57.972Z,1022.51
2022-10-02T21:38:05.144Z,1022.55
2022-10-02T21:43:12.360Z,1022.48
2022-10-02T21:48:19.714Z,1022.37
2022-10-02T21:53:26.980Z,1022.32
2022-10-02T21:58:37.309Z,1022.20
2022-10-02T22:03:44.714Z,1022.29
2022-10-02T22:08:52.308Z,1022.15
2022-10-02T22:13:59.558Z,1022.24
2022-10-02T22:19:06.746Z,1022.24
2022-10-02T22:24:13.941Z,1022.20
2022-10-02T22:29:21.125Z,1022.68
2022-10-02T22:34:28.357Z,1022.83
2022-10-02T22:39:35.668Z,1022.91
2022-10-02T22:44:42.801Z,1022.98
2022-10-02T22:49:50.034Z,1023.04
2022-10-02T22:54:57.327Z,1023.05
2022-10-02T23:00:04.459Z,1023.16
2022-10-02T23:05:11.665Z,1023.23
2022-10-02T23:10:18.891Z,1023.33
2022-10-02T23:15:26.052Z,1023.43
2022-10-02T23:20:33.290Z,1023.51
2022-10-02T23:25:40.515Z,1023.55
2022-10-02T23:30:47.741Z,1023.58
2022-10-02T23:35:54.910Z,1023.51
2022-10-02T23:41:02.247Z,1023.65
2022-10-02T23:46:09.510Z,1023.68
2022-10-02T23:51:16.673Z,1023.65
2022-10-02T23:56:23.911Z,1023.71
